Time;durP1;ratioP1;P1;durP2;ratioP2;P2;SDS_P1;SDS_P2;PMS_P1;PMS_P2;Temp;Humidity;BMP_temperature;BMP_pressure;BME280_temperature;BME280_humidity;BME280_pressure;Samples;Min_cycle;Max_cycle;Signal;HPM_P1;HPM_P2
2021/05/13 00:01:22;;;;;;;5.80;3.60;;;12.60;89.00;;;;;;5095909;28;20190;-75
2021/05/13 00:03:52;;;;;;;6.10;3.37;;;12.70;88.70;;;;;;5103116;28;20719;-74
2021/05/13 00:06:18;;;;;;;8.10;3.27;;;12.60;88.60;;;;;;5107299;28;20433;-74
2021/05/13 00:08:45;;;;;;;6.37;3.87;;;12.60;88.40;;;;;;5100569;28;20428;-75
2021/05/13 00:11:12;;;;;;;5.20;3.70;;;12.60;88.40;;;;;;5103163;28;20427;-75
2021/05/13 00:13:39;;;;;;;7.17;3.63;;;12.50;88.90;;;;;;5105624;28;20450;-75
2021/05/13 00:16:06;;;;;;;9.60;4.10;;;12.50;88.90;;;;;;5123996;27;20424;-76
2021/05/13 00:18:33;;;;;;;6.00;3.43;;;12.60;89.20;;;;;;5121482;28;20424;-74
2021/05/13 00:20:59;;;;;;;7.53;4.00;;;12.60;89.50;;;;;;5113376;28;20456;-75
2021/05/13 00:23:25;;;;;;;9.50;4.80;;;12.60;89.70;;;;;;5113604;28;20471;-75
2021/05/13 00:25:52;;;;;;;4.97;3.40;;;12.50;89.90;;;;;;5110582;28;20424;-74
2021/05/13 00:28:18;;;;;;;7.77;4.50;;;12.50;90.00;;;;;;5093369;28;21113;-75
2021/05/13 00:30:44;;;;;;;5.90;3.90;;;12.40;90.40;;;;;;5092796;28;20463;-74
2021/05/13 00:33:10;;;;;;;6.47;4.50;;;12.40;90.50;;;;;;5093409;28;20445;-74
2021/05/13 00:35:37;;;;;;;6.70;3.67;;;12.40;90.50;;;;;;5104351;28;20429;-74
2021/05/13 00:38:04;;;;;;;6.00;4.40;;;12.40;90.60;;;;;;5106693;28;20427;-75
2021/05/13 00:40:29;;;;;;;5.47;3.60;;;12.40;90.60;;;;;;5106742;28;20432;-75
2021/05/13 00:42:55;;;;;;;4.87;3.50;;;12.40;90.50;;;;;;5094157;28;20465;-74
2021/05/13 00:45:22;;;;;;;6.93;4.00;;;12.40;90.60;;;;;;5095029;28;20417;-73
2021/05/13 00:48:02;;;;;;;6.20;3.50;;;12.50;90.60;;;;;;5108126;28;20707;-74
2021/05/13 00:50:28;;;;;;;8.90;3.90;;;12.40;90.70;;;;;;5091819;28;20854;-76
2021/05/13 00:52:54;;;;;;;5.70;3.27;;;12.50;90.40;;;;;;5091170;28;20425;-74
2021/05/13 00:55:20;;;;;;;6.20;3.57;;;12.50;90.30;;;;;;5096054;28;20496;-75
2021/05/13 00:57:50;;;;;;;6.27;3.20;;;12.50;90.30;;;;;;5099091;28;21016;-74
2021/05/13 01:03:02;;;;;;;6.60;3.00;;;12.60;90.00;;;;;;5091706;28;20510;-74
2021/05/13 01:05:30;;;;;;;6.87;3.40;;;12.50;90.00;;;;;;5090216;28;20464;-74
2021/05/13 01:08:00;;;;;;;5.13;3.60;;;12.50;90.00;;;;;;5105378;28;20422;-75
2021/05/13 01:10:27;;;;;;;5.50;3.83;;;12.50;89.90;;;;;;5089630;28;20999;-74
2021/05/13 01:12:54;;;;;;;4.73;2.93;;;12.50;90.00;;;;;;5090644;28;20449;-76
2021/05/13 01:15:26;;;;;;;6.40;3.33;;;12.40;90.00;;;;;;5105405;28;20428;-74
2021/05/13 01:18:17;;;;;;;7.90;3.33;;;12.50;90.00;;;;;;5098263;28;20420;-75
2021/05/13 01:20:39;;;;;;;4.53;3.50;;;12.50;89.90;;;;;;5109889;28;20789;-74
2021/05/13 01:23:07;;;;;;;5.73;3.33;;;12.40;89.60;;;;;;5109616;28;20550;-74
2021/05/13 01:25:50;;;;;;;4.80;3.10;;;12.40;89.30;;;;;;5111506;28;20178;-74
2021/05/13 01:28:16;;;;;;;9.83;3.87;;;12.30;88.70;;;;;;5110849;28;20416;-75
2021/05/13 01:30:49;;;;;;;8.20;3.67;;;12.30;88.60;;;;;;5110067;28;20511;-76
2021/05/13 01:33:17;;;;;;;6.77;3.60;;;12.30;88.60;;;;;;5110225;28;20452;-74
2021/05/13 01:35:43;;;;;;;5.97;3.63;;;12.30;88.00;;;;;;5110878;28;21095;-75
2021/05/13 01:38:12;;;;;;;8.83;4.00;;;12.20;88.30;;;;;;5110514;28;20445;-74
2021/05/13 01:40:38;;;;;;;5.50;3.50;;;12.20;88.70;;;;;;5110073;28;20282;-73
2021/05/13 01:43:05;;;;;;;8.80;4.10;;;12.30;88.90;;;;;;5110266;28;20468;-75
2021/05/13 01:45:31;;;;;;;5.23;3.50;;;12.30;89.20;;;;;;5109383;28;20428;-74
2021/05/13 01:48:04;;;;;;;7.73;3.70;;;12.20;89.70;;;;;;5108089;28;20433;-76
2021/05/13 01:50:33;;;;;;;5.37;3.77;;;12.10;90.20;;;;;;5089637;28;20471;-74
2021/05/13 01:52:59;;;;;;;7.23;3.90;;;12.10;90.50;;;;;;5089483;28;20511;-74
2021/05/13 01:55:26;;;;;;;9.67;4.00;;;12.10;90.70;;;;;;5090066;28;20436;-75
2021/05/13 01:57:54;;;;;;;6.67;3.80;;;12.00;90.90;;;;;;5103165;28;20437;-76
2021/05/13 02:00:21;;;;;;;6.17;3.90;;;12.00;91.20;;;;;;5089736;28;20802;-73
2021/05/13 02:02:49;;;;;;;8.83;4.20;;;12.00;91.40;;;;;;5089717;28;21132;-73
2021/05/13 02:05:16;;;;;;;8.83;4.40;;;12.00;91.50;;;;;;5090061;28;20414;-74
2021/05/13 02:07:42;;;;;;;7.70;4.50;;;12.00;91.70;;;;;;5088595;28;20432;-74
2021/05/13 02:10:10;;;;;;;5.90;4.07;;;12.00;91.90;;;;;;5089045;28;20425;-75
2021/05/13 02:12:37;;;;;;;7.60;4.63;;;11.90;92.10;;;;;;5088990;28;20191;-74
2021/05/13 02:15:09;;;;;;;14.57;4.23;;;11.90;92.30;;;;;;5100985;28;20444;-75
2021/05/13 02:17:35;;;;;;;7.40;3.70;;;12.00;91.80;;;;;;5110778;28;20431;-75
2021/05/13 02:20:00;;;;;;;5.57;4.20;;;12.00;91.70;;;;;;5098581;28;20455;-75
2021/05/13 02:22:26;;;;;;;14.03;3.97;;;12.00;91.90;;;;;;5108324;28;20195;-76
2021/05/13 02:24:52;;;;;;;9.60;4.07;;;11.90;92.00;;;;;;5111625;28;20289;-73
2021/05/13 02:27:18;;;;;;;6.47;3.83;;;12.00;91.60;;;;;;5110087;28;20798;-74
2021/05/13 02:29:43;;;;;;;9.57;4.40;;;12.00;91.30;;;;;;5109281;28;20225;-76
2021/05/13 02:32:09;;;;;;;9.90;4.23;;;11.90;91.40;;;;;;5108593;28;20677;-75
2021/05/13 02:34:35;;;;;;;8.03;4.33;;;11.90;91.50;;;;;;5109623;28;20214;-75
2021/05/13 02:37:01;;;;;;;7.70;3.80;;;11.80;91.70;;;;;;5110138;28;20507;-74
2021/05/13 02:39:26;;;;;;;8.63;4.23;;;11.80;92.00;;;;;;5110242;28;20555;-74
2021/05/13 02:41:52;;;;;;;8.13;4.03;;;11.80;92.10;;;;;;5109622;28;20190;-75
2021/05/13 02:44:18;;;;;;;10.70;4.50;;;11.80;92.30;;;;;;5109323;28;20774;-74
2021/05/13 02:46:44;;;;;;;6.00;4.20;;;11.80;92.30;;;;;;5110642;28;20194;-74
2021/05/13 02:49:09;;;;;;;9.13;4.57;;;11.80;92.40;;;;;;5097247;28;20579;-75
2021/05/13 02:51:35;;;;;;;7.20;4.23;;;11.80;92.40;;;;;;5102118;28;20254;-75
2021/05/13 02:54:01;;;;;;;7.67;4.30;;;11.80;92.00;;;;;;5090651;28;20632;-74
2021/05/13 02:56:27;;;;;;;6.37;4.47;;;11.80;92.30;;;;;;5097021;28;20198;-74
2021/05/13 02:58:53;;;;;;;6.90;4.07;;;11.80;92.20;;;;;;5116797;28;20216;-74
2021/05/13 03:01:26;;;;;;;8.60;4.50;;;11.80;92.10;;;;;;5122800;28;20507;-74
2021/05/13 03:03:54;;;;;;;7.80;4.20;;;11.80;92.10;;;;;;5110062;28;20217;-75
2021/05/13 03:06:23;;;;;;;6.80;4.00;;;11.80;92.20;;;;;;5110468;28;20440;-75
2021/05/13 03:08:53;;;;;;;7.43;4.50;;;11.80;92.20;;;;;;5110037;28;20424;-76
2021/05/13 03:11:19;;;;;;;10.07;4.27;;;11.80;91.60;;;;;;5108878;28;20435;-74
2021/05/13 03:13:47;;;;;;;11.47;4.20;;;11.80;91.50;;;;;;5108860;28;20440;-75
2021/05/13 03:16:13;;;;;;;7.67;4.43;;;11.90;91.20;;;;;;5106995;28;20896;-76
2021/05/13 03:18:38;;;;;;;13.83;4.10;;;11.80;91.10;;;;;;5105965;28;20420;-76
2021/05/13 03:21:10;;;;;;;9.50;5.37;;;11.90;91.10;;;;;;5109066;28;20194;-75
2021/05/13 03:26:11;;;;;;;7.13;5.17;;;11.80;91.10;;;;;;5114348;28;20495;-75
2021/05/13 03:28:36;;;;;;;7.50;4.57;;;11.80;91.30;;;;;;5099722;28;21172;-75
2021/05/13 03:31:02;;;;;;;9.83;5.57;;;11.80;91.00;;;;;;5113489;28;20638;-75
2021/05/13 03:33:28;;;;;;;7.60;4.77;;;11.60;91.20;;;;;;5111612;28;20287;-75
2021/05/13 03:35:53;;;;;;;13.47;5.33;;;11.50;91.90;;;;;;5113407;28;20225;-74
2021/05/13 03:38:20;;;;;;;7.70;4.37;;;11.40;92.50;;;;;;5112331;28;20529;-76
2021/05/13 03:40:46;;;;;;;11.37;5.40;;;11.30;92.60;;;;;;5112853;27;20210;-75
2021/05/13 03:43:12;;;;;;;12.17;4.90;;;11.30;92.70;;;;;;5113091;28;20482;-74
2021/05/13 03:45:38;;;;;;;9.13;4.70;;;11.30;92.50;;;;;;5112449;28;20432;-75
2021/05/13 03:48:05;;;;;;;9.03;4.60;;;11.30;92.80;;;;;;5113941;28;20208;-77
2021/05/13 03:50:33;;;;;;;19.03;5.50;;;11.30;92.80;;;;;;5118006;28;20944;-75
2021/05/13 03:52:58;;;;;;;9.43;5.00;;;11.30;92.90;;;;;;5123564;27;20469;-73
2021/05/13 03:55:24;;;;;;;6.93;4.60;;;11.20;92.90;;;;;;5117294;28;20423;-74
2021/05/13 03:57:54;;;;;;;7.80;4.20;;;11.30;93.20;;;;;;5112038;28;20281;-76
2021/05/13 04:00:27;;;;;;;12.23;4.67;;;11.40;92.70;;;;;;5113095;28;20259;-75
2021/05/13 04:02:52;;;;;;;7.57;4.30;;;11.50;92.00;;;;;;5113446;28;20464;-74
2021/05/13 04:05:18;;;;;;;6.20;4.23;;;11.50;91.60;;;;;;5115951;28;20424;-74
2021/05/13 04:07:45;;;;;;;10.20;5.20;;;11.50;91.50;;;;;;5112944;28;20194;-74
2021/05/13 04:10:11;;;;;;;9.37;5.40;;;11.40;91.70;;;;;;5114970;28;20178;-75
2021/05/13 04:12:38;;;;;;;9.20;5.37;;;11.30;92.10;;;;;;5118239;28;20514;-73
2021/05/13 04:15:06;;;;;;;6.60;4.53;;;11.30;92.40;;;;;;5117965;28;20487;-75
2021/05/13 04:17:32;;;;;;;12.43;4.93;;;11.20;92.60;;;;;;5113317;28;20436;-75
2021/05/13 04:19:57;;;;;;;12.50;5.93;;;11.10;92.80;;;;;;5112265;28;20420;-73
2021/05/13 04:22:23;;;;;;;10.90;5.27;;;11.10;93.00;;;;;;5106907;28;20194;-76
2021/05/13 04:24:49;;;;;;;8.97;4.90;;;11.10;93.10;;;;;;5103691;28;20202;-75
2021/05/13 04:27:14;;;;;;;8.07;4.77;;;11.20;92.90;;;;;;5098854;28;20186;-76
2021/05/13 04:29:40;;;;;;;10.10;5.20;;;11.20;92.90;;;;;;5112128;28;20198;-76
2021/05/13 04:32:06;;;;;;;11.87;5.17;;;11.20;92.90;;;;;;5099123;28;20214;-73
2021/05/13 04:34:32;;;;;;;12.10;5.10;;;11.20;92.90;;;;;;5111689;28;20202;-74
2021/05/13 04:36:57;;;;;;;15.37;5.30;;;11.20;93.00;;;;;;5112851;28;20614;-76
2021/05/13 04:39:23;;;;;;;9.93;4.37;;;11.10;93.00;;;;;;5111394;28;20190;-75
2021/05/13 04:41:51;;;;;;;9.03;5.30;;;11.20;93.40;;;;;;5098605;28;20646;-76
2021/05/13 04:44:16;;;;;;;8.40;5.00;;;11.20;93.50;;;;;;5112055;28;20468;-75
2021/05/13 04:46:42;;;;;;;10.57;6.10;;;11.20;93.60;;;;;;5107813;28;20529;-74
2021/05/13 04:51:35;;;;;;;7.63;4.00;;;11.50;92.50;;;;;;5097861;28;20425;-75
2021/05/13 04:54:01;;;;;;;13.10;5.27;;;11.60;92.20;;;;;;5098128;28;20211;-75
2021/05/13 04:56:28;;;;;;;13.23;6.07;;;11.70;92.10;;;;;;5102824;28;21010;-74
2021/05/13 04:58:54;;;;;;;7.30;4.80;;;11.80;92.10;;;;;;5102067;28;20428;-75
2021/05/13 05:01:20;;;;;;;9.00;5.20;;;11.80;92.00;;;;;;5112054;28;20442;-74
2021/05/13 05:03:46;;;;;;;11.47;6.27;;;11.90;91.70;;;;;;5100091;28;20211;-75
2021/05/13 05:06:12;;;;;;;8.13;5.03;;;12.00;91.40;;;;;;5098452;28;20455;-73
2021/05/13 05:08:39;;;;;;;10.93;6.10;;;12.10;91.40;;;;;;5113831;28;20959;-75
2021/05/13 05:11:05;;;;;;;8.90;5.20;;;12.10;91.20;;;;;;5108415;28;20425;-76
2021/05/13 05:13:31;;;;;;;8.77;5.53;;;12.20;91.10;;;;;;5105203;28;20447;-75
2021/05/13 05:15:57;;;;;;;7.67;5.47;;;12.30;91.00;;;;;;5112568;28;20428;-75
2021/05/13 05:18:24;;;;;;;9.50;4.90;;;12.30;90.60;;;;;;5115570;28;20473;-76
2021/05/13 05:20:50;;;;;;;9.37;5.20;;;12.30;90.40;;;;;;5115856;28;20511;-75
2021/05/13 05:23:16;;;;;;;9.70;5.07;;;12.30;90.30;;;;;;5112020;28;20499;-76
2021/05/13 05:25:42;;;;;;;5.77;4.43;;;12.30;90.00;;;;;;5111701;28;20420;-75
2021/05/13 05:28:08;;;;;;;8.80;5.10;;;12.30;89.50;;;;;;5112187;28;20800;-75
2021/05/13 05:30:35;;;;;;;11.37;5.10;;;12.20;89.60;;;;;;5110468;28;20194;-76
2021/05/13 05:33:02;;;;;;;10.97;5.27;;;12.10;89.70;;;;;;5098193;28;20191;-74
2021/05/13 05:35:28;;;;;;;9.50;5.57;;;12.00;90.10;;;;;;5111934;28;20431;-76
2021/05/13 05:37:57;;;;;;;10.60;5.10;;;12.00;90.20;;;;;;5113660;28;20420;-74
2021/05/13 05:40:24;;;;;;;13.40;5.30;;;12.00;90.20;;;;;;5113687;28;20261;-75
2021/05/13 05:42:51;;;;;;;8.53;5.13;;;12.00;90.50;;;;;;5114013;28;21195;-76
2021/05/13 05:45:17;;;;;;;10.00;5.50;;;12.10;89.90;;;;;;5111020;28;20523;-75
2021/05/13 05:47:44;;;;;;;10.97;4.97;;;12.10;89.60;;;;;;5115687;28;20444;-76
2021/05/13 05:50:10;;;;;;;11.23;5.07;;;12.10;89.30;;;;;;5124348;28;20417;-77
2021/05/13 05:52:36;;;;;;;10.60;5.90;;;12.00;89.30;;;;;;5111702;28;20420;-73
2021/05/13 05:55:04;;;;;;;10.70;4.40;;;12.00;88.90;;;;;;5111211;28;20509;-74
2021/05/13 05:57:30;;;;;;;8.10;4.90;;;12.00;89.00;;;;;;5111427;28;20424;-73
2021/05/13 05:59:58;;;;;;;9.50;4.93;;;12.10;88.90;;;;;;5111352;28;20436;-74
2021/05/13 06:02:24;;;;;;;10.87;4.47;;;12.10;88.60;;;;;;5110896;28;20182;-74
2021/05/13 06:04:51;;;;;;;11.30;5.40;;;12.10;88.90;;;;;;5110746;28;20489;-73
2021/05/13 06:07:18;;;;;;;14.50;5.13;;;12.30;88.60;;;;;;5111284;28;20413;-76
2021/05/13 06:09:43;;;;;;;9.50;5.10;;;12.30;88.00;;;;;;5101774;28;20434;-74
2021/05/13 06:12:09;;;;;;;9.23;4.47;;;12.50;87.70;;;;;;5090456;28;20417;-74
2021/05/13 06:14:35;;;;;;;9.23;4.87;;;12.60;87.10;;;;;;5099534;28;20692;-74
2021/05/13 06:17:01;;;;;;;6.70;4.80;;;12.60;86.60;;;;;;5111212;28;20186;-74
2021/05/13 06:19:27;;;;;;;8.97;4.20;;;12.60;86.20;;;;;;5109387;28;20194;-74
2021/05/13 06:21:52;;;;;;;8.67;4.77;;;12.70;85.60;;;;;;5110928;28;20982;-74
2021/05/13 06:24:18;;;;;;;8.47;5.07;;;12.70;85.90;;;;;;5097569;28;20543;-73
2021/05/13 06:26:54;;;;;;;10.67;4.97;;;12.70;85.90;;;;;;5095819;28;20179;-76
2021/05/13 06:29:20;;;;;;;8.13;5.73;;;12.80;84.90;;;;;;5109051;28;20444;-75
2021/05/13 06:31:45;;;;;;;8.83;4.43;;;12.80;84.60;;;;;;5111032;28;20413;-75
2021/05/13 06:34:11;;;;;;;8.23;4.70;;;12.80;85.00;;;;;;5110435;28;20222;-75
2021/05/13 06:36:39;;;;;;;9.67;5.20;;;12.90;84.60;;;;;;5110117;28;20186;-75
2021/05/13 06:39:06;;;;;;;7.93;4.40;;;13.00;84.40;;;;;;5108376;28;20194;-75
2021/05/13 06:41:31;;;;;;;6.60;4.87;;;13.10;82.40;;;;;;5109716;28;20423;-75
2021/05/13 06:43:57;;;;;;;6.00;4.80;;;13.20;81.40;;;;;;5109371;28;20464;-75
2021/05/13 06:46:24;;;;;;;7.00;3.80;;;13.30;80.50;;;;;;5109616;28;20186;-75
2021/05/13 06:48:51;;;;;;;8.47;4.37;;;13.30;81.20;;;;;;5098993;28;20183;-75
2021/05/13 06:51:18;;;;;;;5.60;3.77;;;13.40;81.40;;;;;;5092023;28;20421;-74
2021/05/13 06:53:45;;;;;;;6.80;4.40;;;13.50;79.30;;;;;;5109462;28;20444;-75
2021/05/13 06:56:11;;;;;;;5.77;3.53;;;13.50;78.00;;;;;;5111608;28;20795;-75
2021/05/13 06:58:36;;;;;;;6.80;4.00;;;13.60;78.10;;;;;;5109916;28;20420;-75
2021/05/13 07:01:02;;;;;;;4.53;3.33;;;13.60;78.10;;;;;;5107561;28;20293;-74
2021/05/13 07:03:28;;;;;;;6.87;3.60;;;13.60;79.00;;;;;;5092266;28;20702;-75
2021/05/13 07:05:54;;;;;;;7.20;4.00;;;13.80;77.60;;;;;;5105081;28;20201;-74
2021/05/13 07:08:19;;;;;;;5.60;3.13;;;13.80;77.40;;;;;;5114072;28;20215;-76
2021/05/13 07:10:45;;;;;;;4.47;2.87;;;13.90;77.40;;;;;;5094895;28;20224;-74
2021/05/13 07:13:11;;;;;;;3.33;2.20;;;14.00;75.40;;;;;;5109054;28;20444;-74
2021/05/13 07:15:37;;;;;;;4.57;3.40;;;14.10;74.00;;;;;;5105736;28;20278;-75
2021/05/13 07:18:03;;;;;;;11.30;3.50;;;14.20;74.80;;;;;;5089546;28;20555;-76
2021/05/13 07:20:30;;;;;;;6.03;4.10;;;14.30;75.90;;;;;;5104075;28;20190;-75
2021/05/13 07:22:57;;;;;;;5.13;3.93;;;14.40;75.70;;;;;;5108456;28;20825;-75
2021/05/13 07:25:23;;;;;;;6.60;3.80;;;14.50;75.50;;;;;;5107999;28;20450;-75
2021/05/13 07:27:49;;;;;;;10.50;5.37;;;14.50;74.60;;;;;;5108471;28;20421;-73
2021/05/13 07:30:16;;;;;;;5.13;3.37;;;14.60;74.00;;;;;;5108758;28;20518;-76
2021/05/13 07:32:43;;;;;;;6.40;3.37;;;14.60;73.60;;;;;;5109246;28;20557;-74
2021/05/13 07:35:09;;;;;;;4.90;3.03;;;14.60;72.90;;;;;;5109058;28;20436;-74
2021/05/13 07:37:35;;;;;;;5.40;3.17;;;14.70;72.40;;;;;;5109455;28;20424;-75
2021/05/13 07:40:02;;;;;;;4.50;3.73;;;14.80;72.70;;;;;;5108732;28;20424;-75
2021/05/13 07:42:28;;;;;;;4.37;3.30;;;14.70;72.30;;;;;;5109107;28;20198;-75
2021/05/13 07:44:53;;;;;;;5.40;3.70;;;14.80;72.40;;;;;;5109933;28;20480;-75
2021/05/13 07:47:22;;;;;;;4.93;3.40;;;14.90;72.10;;;;;;5112858;28;20189;-75
2021/05/13 07:49:48;;;;;;;7.93;3.70;;;15.00;71.80;;;;;;5111515;28;20203;-74
2021/05/13 07:52:14;;;;;;;5.43;3.53;;;15.00;71.60;;;;;;5110291;28;20420;-76
2021/05/13 07:54:39;;;;;;;4.50;3.07;;;15.10;72.40;;;;;;5110860;28;20444;-74
2021/05/13 07:57:07;;;;;;;5.37;3.00;;;15.20;71.60;;;;;;5099511;28;20635;-76
2021/05/13 07:59:34;;;;;;;6.70;3.90;;;15.30;71.10;;;;;;5106587;28;20190;-75
2021/05/13 08:02:00;;;;;;;5.73;3.47;;;15.30;70.80;;;;;;5100227;28;20859;-76
2021/05/13 08:04:26;;;;;;;6.40;3.47;;;15.30;69.80;;;;;;5090007;28;20544;-76
2021/05/13 08:06:52;;;;;;;5.00;3.33;;;15.20;70.40;;;;;;5100134;28;21065;-75
2021/05/13 08:09:18;;;;;;;5.27;3.23;;;15.40;70.20;;;;;;5103810;28;20184;-76
2021/05/13 08:11:43;;;;;;;6.70;3.33;;;15.50;69.80;;;;;;5104140;28;20210;-76
2021/05/13 08:14:09;;;;;;;7.73;3.03;;;15.60;68.80;;;;;;5111980;28;20260;-75
2021/05/13 08:16:35;;;;;;;8.40;3.17;;;15.80;68.50;;;;;;5112901;28;20538;-75
2021/05/13 08:19:01;;;;;;;8.30;3.70;;;15.80;66.90;;;;;;5095223;28;20185;-75
2021/05/13 08:21:27;;;;;;;5.73;3.60;;;15.60;67.30;;;;;;5092712;28;20449;-76
2021/05/13 08:23:52;;;;;;;6.10;2.90;;;15.70;67.30;;;;;;5109599;28;20218;-76
2021/05/13 08:26:18;;;;;;;3.57;3.20;;;15.90;66.10;;;;;;5102688;27;20585;-76
2021/05/13 08:28:44;;;;;;;6.40;3.20;;;16.10;64.70;;;;;;5111297;28;20244;-76
2021/05/13 08:31:10;;;;;;;5.70;2.73;;;16.10;65.40;;;;;;5112634;28;20716;-77
2021/05/13 08:33:35;;;;;;;5.33;3.33;;;16.10;65.60;;;;;;5099592;28;20574;-77
2021/05/13 08:36:01;;;;;;;3.77;2.57;;;16.40;66.10;;;;;;5112965;28;20239;-76
2021/05/13 08:38:27;;;;;;;9.23;2.90;;;16.40;64.70;;;;;;5096773;28;20197;-75
2021/05/13 08:40:53;;;;;;;4.30;3.40;;;16.40;64.80;;;;;;5101696;28;20230;-75
2021/05/13 08:43:27;;;;;;;8.03;3.03;;;16.30;63.40;;;;;;5109923;28;20734;-77
2021/05/13 08:45:55;;;;;;;4.60;3.60;;;16.30;63.50;;;;;;5103318;28;20212;-75
2021/05/13 08:48:25;;;;;;;7.40;3.67;;;16.30;63.70;;;;;;5113564;28;20422;-75
2021/05/13 08:50:59;;;;;;;5.17;2.90;;;16.00;63.50;;;;;;5113167;28;20950;-76
2021/05/13 08:53:25;;;;;;;4.73;3.17;;;16.10;64.80;;;;;;5112673;28;20477;-75
2021/05/13 08:55:51;;;;;;;4.97;3.40;;;16.30;64.50;;;;;;5101450;28;20425;-75
2021/05/13 08:58:17;;;;;;;4.37;3.13;;;15.90;65.30;;;;;;5105835;28;20429;-75
2021/05/13 09:00:55;;;;;;;4.57;3.10;;;15.90;66.10;;;;;;5092183;28;20450;-75
2021/05/13 09:03:35;;;;;;;5.57;3.13;;;15.90;66.10;;;;;;5092256;28;20690;-76
2021/05/13 09:06:02;;;;;;;5.93;3.47;;;16.10;65.30;;;;;;5092236;28;20921;-77
2021/05/13 09:08:28;;;;;;;5.03;3.77;;;16.10;64.80;;;;;;5099673;28;20433;-75
2021/05/13 09:10:53;;;;;;;3.50;2.83;;;16.10;64.70;;;;;;5110260;27;20424;-74
2021/05/13 09:13:27;;;;;;;5.83;3.33;;;16.00;65.00;;;;;;5091913;28;20575;-75
2021/05/13 09:15:53;;;;;;;5.80;3.10;;;16.00;64.50;;;;;;5095855;28;20197;-75
2021/05/13 09:18:30;;;;;;;4.47;2.97;;;16.30;64.50;;;;;;5100988;28;20434;-76
2021/05/13 09:21:06;;;;;;;5.47;3.07;;;16.60;63.10;;;;;;5105937;28;20191;-75
2021/05/13 09:23:32;;;;;;;2.67;2.27;;;17.00;61.90;;;;;;5107462;28;20844;-75
2021/05/13 09:26:04;;;;;;;6.03;2.63;;;17.10;61.20;;;;;;5102897;28;20434;-76
2021/05/13 09:28:30;;;;;;;6.03;3.07;;;17.30;60.60;;;;;;5094374;28;20543;-75
2021/05/13 09:30:55;;;;;;;4.20;3.27;;;17.40;60.30;;;;;;5105801;28;20455;-76
2021/05/13 09:33:30;;;;;;;3.70;2.60;;;17.40;60.10;;;;;;5104700;28;20199;-74
2021/05/13 09:35:57;;;;;;;4.47;2.73;;;17.40;60.10;;;;;;5092458;28;20190;-75
2021/05/13 09:38:33;;;;;;;3.20;2.70;;;17.40;59.90;;;;;;5095926;28;20452;-75
2021/05/13 09:41:00;;;;;;;8.33;2.73;;;17.50;60.60;;;;;;5110959;27;20451;-75
2021/05/13 09:43:33;;;;;;;3.57;2.70;;;17.60;58.90;;;;;;5114217;28;20570;-76
2021/05/13 09:46:03;;;;;;;7.73;2.87;;;17.70;58.40;;;;;;5109110;28;20436;-77
2021/05/13 09:48:41;;;;;;;4.77;2.40;;;17.60;59.20;;;;;;5094537;28;20431;-76
2021/05/13 09:51:31;;;;;;;4.23;2.70;;;17.70;58.90;;;;;;5106783;27;20816;-75
2021/05/13 09:54:06;;;;;;;4.33;2.50;;;17.80;59.30;;;;;;5080518;28;20464;-76
2021/05/13 09:56:33;;;;;;;4.27;2.70;;;17.80;57.70;;;;;;5105382;28;20434;-76
2021/05/13 09:59:24;;;;;;;4.30;2.60;;;17.70;57.20;;;;;;5104829;28;20508;-77
2021/05/13 10:02:03;;;;;;;4.50;3.10;;;17.60;58.10;;;;;;5101760;28;20455;-75
2021/05/13 10:04:29;;;;;;;5.03;2.90;;;17.60;57.20;;;;;;5097083;28;20540;-75
2021/05/13 10:06:55;;;;;;;3.20;2.50;;;17.40;57.00;;;;;;5095191;28;20421;-75
2021/05/13 10:09:21;;;;;;;3.47;2.80;;;17.40;57.00;;;;;;5094945;28;20481;-75
2021/05/13 10:11:53;;;;;;;4.37;2.47;;;17.60;57.80;;;;;;5092967;28;20767;-76
2021/05/13 10:14:21;;;;;;;3.20;2.50;;;17.70;56.60;;;;;;5104552;28;20463;-77
2021/05/13 10:16:49;;;;;;;4.57;2.70;;;17.70;56.60;;;;;;5097875;28;21144;-75
2021/05/13 10:19:21;;;;;;;5.73;3.20;;;17.80;56.40;;;;;;5105911;28;20512;-76
2021/05/13 10:21:48;;;;;;;9.30;3.50;;;18.00;56.10;;;;;;5106391;28;20826;-75
2021/05/13 10:24:14;;;;;;;6.60;2.47;;;18.00;55.80;;;;;;5095715;28;20535;-76
2021/05/13 10:26:40;;;;;;;5.77;3.20;;;18.00;55.70;;;;;;5109899;28;20931;-73
2021/05/13 10:29:32;;;;;;;4.77;2.30;;;18.10;55.30;;;;;;5109251;28;20455;-76
2021/05/13 10:32:26;;;;;;;3.53;2.00;;;17.70;54.80;;;;;;5102261;28;20460;-75
2021/05/13 10:34:54;;;;;;;2.20;1.90;;;17.80;53.60;;;;;;5102350;28;20448;-76
2021/05/13 10:37:39;;;;;;;2.43;1.93;;;17.20;54.20;;;;;;5087751;28;20422;-75
2021/05/13 10:42:36;;;;;;;3.40;2.10;;;17.10;55.40;;;;;;5088211;28;20443;-75
2021/05/13 10:45:33;;;;;;;6.40;2.20;;;17.30;55.60;;;;;;5086069;28;20455;-75
2021/05/13 10:48:27;;;;;;;6.30;3.00;;;17.30;55.30;;;;;;5088187;28;20426;-75
2021/05/13 10:51:07;;;;;;;5.27;2.10;;;16.80;56.50;;;;;;5100634;28;20419;-73
2021/05/13 10:56:10;;;;;;;6.30;2.60;;;17.00;57.00;;;;;;5108662;28;20507;-75
2021/05/13 10:58:52;;;;;;;4.33;2.60;;;17.00;57.00;;;;;;5105821;28;20563;-76
2021/05/13 11:01:32;;;;;;;6.30;2.40;;;17.00;57.40;;;;;;5088593;28;20516;-76
2021/05/13 11:04:23;;;;;;;4.60;2.30;;;17.00;58.10;;;;;;5087964;28;20479;-75
2021/05/13 11:06:59;;;;;;;3.07;2.20;;;17.20;58.70;;;;;;5098175;28;20468;-75
2021/05/13 11:09:37;;;;;;;8.00;2.30;;;17.20;58.20;;;;;;5108318;28;20431;-74
2021/05/13 11:12:14;;;;;;;4.07;1.90;;;17.20;59.30;;;;;;5108316;28;20513;-76
2021/05/13 11:20:18;;;;;;;2.57;1.97;;;17.20;60.90;;;;;;5109254;28;20454;-75
2021/05/13 11:22:56;;;;;;;9.63;2.00;;;17.80;58.70;;;;;;5108404;28;20467;-74
2021/05/13 11:25:23;;;;;;;4.43;2.10;;;18.30;57.40;;;;;;5093032;28;20421;-75
2021/05/13 11:27:49;;;;;;;6.30;2.47;;;18.40;56.60;;;;;;5088187;28;20414;-77
2021/05/13 11:30:15;;;;;;;4.53;1.90;;;18.30;55.60;;;;;;5088080;28;20447;-75
2021/05/13 11:32:41;;;;;;;3.10;1.93;;;18.30;55.00;;;;;;5088632;28;20187;-76
2021/05/13 11:35:08;;;;;;;2.40;2.07;;;18.40;55.60;;;;;;5100867;28;20456;-75
2021/05/13 11:37:35;;;;;;;5.20;2.40;;;18.10;55.30;;;;;;5104752;28;20448;-74
2021/05/13 11:40:20;;;;;;;4.13;1.70;;;17.50;55.60;;;;;;5106959;28;20808;-80
2021/05/13 11:42:46;;;;;;;2.73;1.87;;;17.50;54.60;;;;;;5110366;28;20530;-74
2021/05/13 11:45:21;;;;;;;5.47;1.60;;;17.60;53.30;;;;;;5103735;28;20559;-74
2021/05/13 11:47:47;;;;;;;2.33;1.30;;;17.40;53.20;;;;;;5092164;28;20269;-75
2021/05/13 11:50:30;;;;;;;3.60;1.77;;;17.20;54.40;;;;;;5094332;28;20435;-76
2021/05/13 11:53:08;;;;;;;2.90;1.60;;;17.00;55.40;;;;;;5093976;28;20516;-75
2021/05/13 11:55:34;;;;;;;8.90;1.70;;;17.00;56.80;;;;;;5112748;28;20422;-75
2021/05/13 11:58:00;;;;;;;2.23;1.60;;;17.00;57.20;;;;;;5094961;28;20440;-76
2021/05/13 12:00:25;;;;;;;6.63;1.63;;;16.90;57.70;;;;;;5091019;28;20445;-75
2021/05/13 12:03:14;;;;;;;4.00;1.50;;;16.80;56.00;;;;;;5091363;28;20185;-75
2021/05/13 12:05:53;;;;;;;3.10;1.67;;;16.50;56.90;;;;;;5091306;28;20548;-74
2021/05/13 12:08:23;;;;;;;1.80;1.27;;;16.60;56.80;;;;;;5092288;28;20411;-76
2021/05/13 12:10:50;;;;;;;3.40;1.60;;;16.60;56.40;;;;;;5090414;28;20427;-73
2021/05/13 12:13:16;;;;;;;2.53;1.43;;;16.70;57.20;;;;;;5090874;28;20951;-74
2021/05/13 12:15:42;;;;;;;5.90;1.60;;;16.70;57.40;;;;;;5092400;28;20425;-75
2021/05/13 12:18:09;;;;;;;1.90;1.30;;;16.80;57.40;;;;;;5090194;28;20526;-75
2021/05/13 12:20:37;;;;;;;2.07;1.60;;;17.00;56.80;;;;;;5089806;28;20256;-74
2021/05/13 12:23:04;;;;;;;4.63;1.40;;;17.10;56.80;;;;;;5103507;28;20459;-75
2021/05/13 12:25:32;;;;;;;1.90;1.40;;;17.40;56.20;;;;;;5111895;28;21267;-75
2021/05/13 12:27:59;;;;;;;2.07;1.37;;;17.50;55.00;;;;;;5112466;28;20770;-74
2021/05/13 12:30:25;;;;;;;6.83;1.60;;;17.60;54.80;;;;;;5110839;28;20489;-75
2021/05/13 12:32:51;;;;;;;2.27;1.50;;;17.70;53.80;;;;;;5100406;28;20453;-76
2021/05/13 12:35:24;;;;;;;1.70;1.20;;;18.00;51.40;;;;;;5111681;28;20491;-74
2021/05/13 12:37:50;;;;;;;3.63;2.10;;;18.00;51.70;;;;;;5113401;28;20268;-74
2021/05/13 12:40:17;;;;;;;2.80;1.20;;;18.10;51.70;;;;;;5112270;28;20448;-75
2021/05/13 12:42:43;;;;;;;2.60;1.20;;;18.50;47.00;;;;;;5112342;28;20454;-74
2021/05/13 12:45:26;;;;;;;1.20;1.10;;;18.70;47.00;;;;;;5110771;28;20464;-77
2021/05/13 12:48:02;;;;;;;2.10;1.40;;;18.70;46.70;;;;;;5110498;28;20186;-76
2021/05/13 12:50:29;;;;;;;2.90;1.33;;;18.70;47.50;;;;;;5110428;28;20424;-74
2021/05/13 12:53:11;;;;;;;2.00;1.30;;;18.90;46.70;;;;;;5108971;28;20420;-76
2021/05/13 12:55:39;;;;;;;3.47;1.10;;;19.00;47.00;;;;;;5108567;28;20432;-77
2021/05/13 12:58:13;;;;;;;3.43;1.30;;;19.20;45.30;;;;;;5110562;28;20814;-75
2021/05/13 13:00:40;;;;;;;2.97;1.40;;;19.00;44.90;;;;;;5110183;28;20420;-75
2021/05/13 13:03:07;;;;;;;1.57;1.00;;;18.90;46.20;;;;;;5094160;28;20464;-74
2021/05/13 13:05:34;;;;;;;1.17;1.10;;;18.90;45.90;;;;;;5107556;27;20443;-76
2021/05/13 13:08:00;;;;;;;2.17;1.20;;;19.00;46.20;;;;;;5108340;28;20427;-77
2021/05/13 13:10:46;;;;;;;2.20;1.30;;;19.00;47.00;;;;;;5098850;28;20440;-74